Terminal Aerodrome Forecast
Issued by NWS

Home | Current Version | Previous Version | Text Only | Print | Product List | Glossary On
Versions: 1 2 3 4 5 6 7 8 9 10 11 12 13 14 15 16 17 18 19 20 21 22 23 24 25 26
000
FTUS42 KMFL 200107 AAA
TAFOPF
TAF AMD
KOPF 200107Z 2001/2024 09012KT P6SM VCSH SCT035 SCT250
     FM200200 08005KT P6SM VCSH SCT025 BKN050
     FM200600 08005KT P6SM SHRA VCTS SCT025CB BKN045
     FM201400 12008KT P6SM SHRA VCTS SCT025CB BKN050 PROB30
      2014/2020 4SM TSRA BKN030CB=

USA.gov is the U.S. government's official web portal to all federal, state and local government web resources and services.